createdAt,value
2019-02-15T00:02:17.127Z,12.16
2019-02-15T00:04:49.948Z,12.22
2019-02-15T00:07:23.554Z,12.28
2019-02-15T00:09:54.940Z,12.26
2019-02-15T00:12:26.424Z,11.99
2019-02-15T00:14:57.732Z,12.20
2019-02-15T00:18:07.526Z,12.37
2019-02-15T00:20:48.926Z,12.19
2019-02-15T00:23:19.843Z,12.23
2019-02-15T00:25:50.862Z,12.39
2019-02-15T00:28:21.041Z,12.12
2019-02-15T00:30:51.616Z,11.98
2019-02-15T00:33:22.175Z,12.35
2019-02-15T00:35:55.507Z,12.40
2019-02-15T00:38:27.364Z,12.53
2019-02-15T00:40:58.166Z,12.52
2019-02-15T00:43:28.688Z,12.11
2019-02-15T00:46:24.910Z,11.99
2019-02-15T00:48:56.710Z,11.86
2019-02-15T00:51:41.536Z,12.13
2019-02-15T00:54:31.714Z,12.00
2019-02-15T00:57:33.964Z,12.18
2019-02-15T01:00:35.969Z,12.09
2019-02-15T01:03:33.210Z,12.09
2019-02-15T01:06:22.175Z,11.78
2019-02-15T01:09:03.882Z,11.29
2019-02-15T01:11:56.222Z,11.43
2019-02-15T01:14:26.965Z,11.18
2019-02-15T01:16:57.917Z,11.01
2019-02-15T01:19:34.092Z,10.86
2019-02-15T01:22:05.154Z,10.78
2019-02-15T01:24:35.696Z,11.08
2019-02-15T01:27:23.110Z,11.17
2019-02-15T01:30:12.968Z,11.03
2019-02-15T01:33:08.027Z,10.99
2019-02-15T01:36:03.151Z,10.83
2019-02-15T01:39:09.067Z,10.53
2019-02-15T01:41:51.360Z,11.22
2019-02-15T01:44:32.298Z,10.57
2019-02-15T01:47:13.387Z,10.86
2019-02-15T01:49:44.214Z,11.22
2019-02-15T01:52:15.641Z,11.33
2019-02-15T01:54:46.710Z,11.23
2019-02-15T01:57:18.299Z,11.35
2019-02-15T01:59:49.006Z,11.25
2019-02-15T02:02:20.197Z,11.46
2019-02-15T02:04:50.911Z,10.86
2019-02-15T02:07:23.136Z,11.41
2019-02-15T02:09:53.459Z,11.23
2019-02-15T02:12:24.096Z,11.43
2019-02-15T02:14:55.651Z,11.48
2019-02-15T02:17:26.723Z,11.83
2019-02-15T02:19:56.965Z,11.83
2019-02-15T02:22:27.126Z,11.80
2019-02-15T02:24:58.508Z,11.55
2019-02-15T02:27:30.725Z,11.41
2019-02-15T02:30:02.776Z,11.61
2019-02-15T02:32:36.883Z,11.04
2019-02-15T02:35:08.954Z,11.32
2019-02-15T02:37:40.579Z,11.55
2019-02-15T02:40:13.235Z,11.90
2019-02-15T02:42:44.572Z,12.09
2019-02-15T02:45:17.701Z,11.58
2019-02-15T02:47:48.260Z,11.65
2019-02-15T02:50:20.281Z,11.33
2019-02-15T02:52:51.308Z,11.29
2019-02-15T02:55:24.828Z,11.60
2019-02-15T02:57:55.978Z,11.60
2019-02-15T03:00:33.672Z,12.02
2019-02-15T03:03:00.436Z,11.79
2019-02-15T03:05:32.254Z,11.80
2019-02-15T03:08:02.411Z,12.03
2019-02-15T03:10:33.295Z,12.16
2019-02-15T03:13:08.901Z,12.08
2019-02-15T03:15:40.051Z,12.06
2019-02-15T03:18:11.057Z,12.04
2019-02-15T03:20:44.126Z,12.17
2019-02-15T03:23:15.741Z,12.02
2019-02-15T03:25:47.482Z,11.80
2019-02-15T03:28:18.876Z,11.99
2019-02-15T03:30:51.900Z,11.60
2019-02-15T03:33:22.081Z,11.89
2019-02-15T03:36:01.769Z,12.19
2019-02-15T03:38:44.933Z,12.21
2019-02-15T03:41:30.697Z,12.13
2019-02-15T03:44:01.956Z,12.19
2019-02-15T03:46:34.344Z,12.02
2019-02-15T03:49:05.569Z,12.02
2019-02-15T03:51:40.295Z,11.96
2019-02-15T03:54:15.110Z,11.89
2019-02-15T03:56:46.440Z,11.90
2019-02-15T03:59:19.404Z,11.85
2019-02-15T04:01:52.811Z,11.74
2019-02-15T04:04:23.788Z,11.75
2019-02-15T04:06:57.306Z,11.68
2019-02-15T04:09:29.983Z,11.62
2019-02-15T04:12:03.578Z,11.92
2019-02-15T04:14:35.099Z,11.50
2019-02-15T04:17:07.999Z,11.76
2019-02-15T04:19:40.145Z,11.53
2019-02-15T04:22:11.038Z,11.52
2019-02-15T04:24:44.498Z,11.76
2019-02-15T04:27:16.040Z,11.40
2019-02-15T04:29:47.754Z,11.63
2019-02-15T04:32:18.435Z,11.51
2019-02-15T04:34:48.918Z,11.74
2019-02-15T04:37:19.272Z,11.71
2019-02-15T04:39:52.767Z,10.95
2019-02-15T04:42:23.495Z,11.01
2019-02-15T04:44:54.707Z,11.26
2019-02-15T04:47:26.570Z,11.09
2019-02-15T04:49:58.415Z,11.09
2019-02-15T04:52:30.655Z,10.53
2019-02-15T04:55:01.342Z,10.92
2019-02-15T04:57:34.513Z,10.45
2019-02-15T05:00:08.001Z,10.90
2019-02-15T05:02:44.768Z,10.84
2019-02-15T05:05:15.353Z,10.69
2019-02-15T05:07:46.465Z,10.80
2019-02-15T05:10:18.186Z,10.54
2019-02-15T05:12:48.859Z,10.86
2019-02-15T05:15:19.392Z,10.24
2019-02-15T05:17:50.829Z,10.34
2019-02-15T05:20:22.247Z,10.32
2019-02-15T05:22:54.052Z,9.80
2019-02-15T05:25:28.023Z,10.04
2019-02-15T05:27:59.129Z,10.18
2019-02-15T05:30:31.436Z,10.28
2019-02-15T05:33:02.035Z,10.38
2019-02-15T05:35:33.395Z,10.51
2019-02-15T05:38:07.570Z,10.64
2019-02-15T05:40:38.624Z,10.51
2019-02-15T05:43:09.132Z,10.76
2019-02-15T05:45:39.293Z,10.87
2019-02-15T05:51:02.341Z,10.75
2019-02-15T05:53:36.807Z,10.94
2019-02-15T05:56:07.549Z,10.72
2019-02-15T05:58:39.496Z,10.45
2019-02-15T06:01:17.229Z,10.75
2019-02-15T06:03:50.005Z,10.83
2019-02-15T06:06:22.926Z,10.83
2019-02-15T06:08:53.554Z,10.56
2019-02-15T06:11:25.014Z,10.98
2019-02-15T06:13:55.302Z,10.96
2019-02-15T06:16:26.382Z,10.92
2019-02-15T06:18:57.494Z,10.45
2019-02-15T06:21:29.764Z,10.30
2019-02-15T06:24:00.407Z,10.38
2019-02-15T06:26:31.443Z,10.72
2019-02-15T06:29:02.847Z,10.33
2019-02-15T06:31:35.098Z,10.62
2019-02-15T06:34:07.550Z,10.43
2019-02-15T06:36:38.379Z,10.54
2019-02-15T06:39:11.742Z,10.53
2019-02-15T06:41:42.764Z,10.27
2019-02-15T06:44:15.157Z,10.45
2019-02-15T06:46:47.699Z,10.60
2019-02-15T06:49:19.631Z,10.53
2019-02-15T06:51:50.652Z,10.16
2019-02-15T06:54:21.582Z,10.36
2019-02-15T06:56:54.370Z,10.30
2019-02-15T06:59:39.404Z,10.26
2019-02-15T07:02:18.963Z,10.26
2019-02-15T07:05:13.819Z,10.07
2019-02-15T07:07:46.736Z,9.99
2019-02-15T07:10:18.530Z,10.49
2019-02-15T07:12:49.576Z,10.31
2019-02-15T07:15:22.882Z,10.27
2019-02-15T07:17:53.361Z,10.53
2019-02-15T07:20:23.442Z,10.37
2019-02-15T07:22:55.139Z,10.83
2019-02-15T07:25:26.444Z,10.50
2019-02-15T07:27:56.584Z,10.65
2019-02-15T07:30:27.031Z,11.06
2019-02-15T07:32:57.640Z,10.76
2019-02-15T07:35:28.302Z,11.21
2019-02-15T07:38:01.055Z,11.09
2019-02-15T07:40:31.242Z,11.12
2019-02-15T07:43:01.805Z,11.13
2019-02-15T07:45:42.464Z,10.82
2019-02-15T07:48:07.819Z,10.46
2019-02-15T07:50:39.207Z,10.68
2019-02-15T07:53:09.376Z,10.78
2019-02-15T07:55:41.971Z,10.74
2019-02-15T07:58:13.328Z,10.89
2019-02-15T08:00:44.981Z,10.67
2019-02-15T08:03:17.489Z,10.65
2019-02-15T08:05:51.126Z,10.79
2019-02-15T08:08:23.681Z,10.70
2019-02-15T08:10:54.473Z,10.89
2019-02-15T08:13:26.991Z,10.83
2019-02-15T08:15:58.783Z,11.35
2019-02-15T08:18:33.195Z,11.46
2019-02-15T08:21:05.108Z,11.00
2019-02-15T08:23:36.914Z,10.91
2019-02-15T08:26:09.999Z,11.30
2019-02-15T08:28:41.843Z,11.44
2019-02-15T08:31:13.386Z,11.72
2019-02-15T08:33:49.152Z,11.89
2019-02-15T08:36:20.998Z,11.00
2019-02-15T08:38:51.603Z,11.06
2019-02-15T08:41:24.672Z,11.04
2019-02-15T08:43:56.517Z,10.99
2019-02-15T08:46:31.317Z,11.29
2019-02-15T08:49:04.526Z,11.31
2019-02-15T08:51:35.041Z,11.59
2019-02-15T08:54:05.306Z,11.43
2019-02-15T08:56:39.711Z,11.90
2019-02-15T08:59:11.166Z,12.08
2019-02-15T09:01:41.923Z,11.77
2019-02-15T09:04:15.084Z,11.59
2019-02-15T09:06:45.934Z,11.62
2019-02-15T09:09:20.238Z,11.92
2019-02-15T09:11:51.712Z,12.19
2019-02-15T09:14:22.266Z,12.53
2019-02-15T09:16:53.251Z,12.85
2019-02-15T09:19:24.289Z,12.53
2019-02-15T09:21:55.565Z,13.08
2019-02-15T09:24:27.381Z,13.15
2019-02-15T09:27:01.831Z,13.31
2019-02-15T09:30:03.873Z,12.68
2019-02-15T09:32:36.371Z,12.66
2019-02-15T09:35:07.740Z,13.31
2019-02-15T09:37:39.613Z,13.48
2019-02-15T09:40:15.778Z,13.47
2019-02-15T09:42:49.197Z,13.71
2019-02-15T09:45:21.780Z,13.67
2019-02-15T09:47:53.411Z,13.68
2019-02-15T09:50:23.997Z,14.45
2019-02-15T09:52:55.042Z,14.26
2019-02-15T09:55:25.868Z,14.24
2019-02-15T09:58:02.566Z,14.84
2019-02-15T10:00:33.078Z,14.89
2019-02-15T10:03:03.762Z,15.41
2019-02-15T10:05:39.622Z,15.37
2019-02-15T10:08:10.088Z,15.90
2019-02-15T10:10:41.033Z,15.60
2019-02-15T10:13:11.812Z,15.11
2019-02-15T10:15:42.048Z,15.71
2019-02-15T10:18:13.777Z,15.59
2019-02-15T10:20:45.247Z,16.01
2019-02-15T10:23:17.026Z,15.92
2019-02-15T10:25:47.633Z,15.68
2019-02-15T10:28:18.723Z,15.82
2019-02-15T10:30:51.888Z,15.89
2019-02-15T10:33:22.201Z,15.78
2019-02-15T10:35:52.979Z,16.01
2019-02-15T10:38:23.845Z,16.28
2019-02-15T10:40:55.349Z,16.22
2019-02-15T10:43:26.819Z,16.33
2019-02-15T10:45:57.437Z,16.57
2019-02-15T10:48:27.655Z,16.20
2019-02-15T10:50:59.191Z,16.92
2019-02-15T10:53:31.576Z,16.76
2019-02-15T10:56:02.676Z,16.87
2019-02-15T10:58:37.059Z,17.45
2019-02-15T11:01:12.548Z,18.09
2019-02-15T11:03:45.023Z,18.13
2019-02-15T11:06:16.084Z,17.98
2019-02-15T11:08:47.597Z,18.29
2019-02-15T11:11:18.213Z,18.19
2019-02-15T11:13:50.678Z,19.00
2019-02-15T11:16:22.371Z,19.17
2019-02-15T11:18:56.006Z,18.83
2019-02-15T11:21:33.053Z,18.67
2019-02-15T11:24:06.734Z,19.21
2019-02-15T11:26:43.313Z,19.92
2019-02-15T11:29:16.458Z,20.22
2019-02-15T11:31:50.381Z,20.82
2019-02-15T11:34:21.791Z,20.55
2019-02-15T11:37:08.022Z,21.11
2019-02-15T11:39:41.773Z,24.50
2019-02-15T11:42:22.837Z,24.50
2019-02-15T11:44:55.203Z,26.08
2019-02-15T11:47:26.431Z,28.27
2019-02-15T11:49:58.293Z,29.43
2019-02-15T11:52:33.079Z,30.74
2019-02-15T11:55:06.654Z,30.62
2019-02-15T11:57:39.498Z,30.55
2019-02-15T12:00:23.143Z,27.62
2019-02-15T12:02:55.704Z,25.36
2019-02-15T12:05:30.760Z,25.20
2019-02-15T12:08:01.525Z,21.79
2019-02-15T12:10:46.409Z,21.79
2019-02-15T12:13:21.461Z,21.67
2019-02-15T12:15:51.704Z,20.94
2019-02-15T12:18:25.239Z,20.34
2019-02-15T12:20:59.797Z,22.78
2019-02-15T12:23:33.365Z,24.61
2019-02-15T12:26:04.906Z,25.97
2019-02-15T12:28:39.340Z,27.09
2019-02-15T12:31:11.675Z,27.85
2019-02-15T12:33:42.801Z,27.83
2019-02-15T12:36:15.487Z,28.13
2019-02-15T12:38:48.054Z,28.02
2019-02-15T12:41:20.251Z,28.82
2019-02-15T12:43:53.978Z,29.06
2019-02-15T12:46:26.287Z,28.12
2019-02-15T12:48:59.405Z,28.29
2019-02-15T12:51:32.122Z,28.91
2019-02-15T12:54:03.314Z,27.83
2019-02-15T12:56:34.350Z,27.91
2019-02-15T12:59:13.013Z,28.04
2019-02-15T13:01:45.981Z,27.63
2019-02-15T13:04:20.223Z,27.34
2019-02-15T13:06:55.054Z,27.16
2019-02-15T13:09:27.685Z,27.08
2019-02-15T13:11:58.926Z,26.61
2019-02-15T13:14:30.064Z,27.90
2019-02-15T13:17:03.807Z,28.59
2019-02-15T13:19:35.746Z,29.24
2019-02-15T13:22:08.682Z,27.10
2019-02-15T13:24:43.141Z,28.98
2019-02-15T13:27:15.106Z,29.71
2019-02-15T13:29:57.839Z,30.69
2019-02-15T13:32:30.476Z,31.93
2019-02-15T13:35:03.643Z,32.43
2019-02-15T13:37:37.179Z,31.20
2019-02-15T13:40:12.239Z,31.79
2019-02-15T13:42:51.349Z,31.05
2019-02-15T13:45:26.572Z,29.05
2019-02-15T13:47:57.072Z,27.41
2019-02-15T13:50:28.927Z,26.07
2019-02-15T13:53:01.991Z,24.66
2019-02-15T13:55:35.938Z,24.07
2019-02-15T13:58:07.184Z,24.17
2019-02-15T14:00:39.727Z,23.08
2019-02-15T14:03:15.561Z,23.11
2019-02-15T14:05:48.163Z,22.32
2019-02-15T14:08:22.832Z,22.09
2019-02-15T14:10:54.574Z,22.06
2019-02-15T14:13:26.001Z,21.54
2019-02-15T14:15:58.251Z,21.30
2019-02-15T14:18:32.879Z,21.35
2019-02-15T14:21:07.116Z,21.01
2019-02-15T14:23:39.420Z,20.36
2019-02-15T14:26:11.501Z,20.80
2019-02-15T14:28:42.924Z,20.55
2019-02-15T14:31:14.328Z,20.68
2019-02-15T14:33:46.217Z,20.77
2019-02-15T14:36:20.027Z,20.60
2019-02-15T14:38:51.840Z,20.84
2019-02-15T14:41:28.011Z,20.64
2019-02-15T14:44:01.349Z,20.43
2019-02-15T14:46:33.708Z,20.59
2019-02-15T14:52:26.316Z,20.81
2019-02-15T14:55:13.093Z,20.44
2019-02-15T15:00:51.652Z,20.71
2019-02-15T15:03:53.261Z,21.22
2019-02-15T15:09:25.192Z,20.56
2019-02-15T15:12:06.057Z,20.58
2019-02-15T15:14:48.746Z,20.61
2019-02-15T15:17:23.266Z,20.49
2019-02-15T15:19:57.486Z,20.58
2019-02-15T15:22:34.440Z,20.70
2019-02-15T15:25:05.034Z,20.52
2019-02-15T15:27:39.064Z,20.52
2019-02-15T15:30:11.688Z,20.88
2019-02-15T15:32:45.210Z,20.42
2019-02-15T15:35:17.994Z,20.26
2019-02-15T15:37:53.381Z,20.52
2019-02-15T15:40:25.589Z,20.86
2019-02-15T15:43:03.806Z,20.66
2019-02-15T15:45:41.904Z,20.14
2019-02-15T15:48:22.674Z,20.22
2019-02-15T15:50:49.081Z,20.04
2019-02-15T15:53:22.225Z,20.21
2019-02-15T15:55:59.307Z,19.81
2019-02-15T15:58:32.706Z,19.90
2019-02-15T16:01:03.767Z,20.28
2019-02-15T16:03:35.408Z,20.44
2019-02-15T16:06:06.787Z,20.63
2019-02-15T16:08:37.430Z,20.68
2019-02-15T16:11:08.073Z,20.60
2019-02-15T16:13:39.705Z,20.39
2019-02-15T16:16:10.696Z,20.66
2019-02-15T16:18:42.771Z,20.34
2019-02-15T16:21:19.626Z,20.53
2019-02-15T16:23:52.126Z,20.54
2019-02-15T16:26:25.621Z,20.23
2019-02-15T16:28:57.545Z,20.54
2019-02-15T16:31:28.194Z,20.35
2019-02-15T16:33:58.805Z,20.45
2019-02-15T16:36:32.299Z,20.33
2019-02-15T16:39:08.422Z,20.36
2019-02-15T16:41:41.760Z,20.09
2019-02-15T16:44:14.260Z,20.24
2019-02-15T16:46:47.899Z,20.38
2019-02-15T16:49:20.777Z,19.63
2019-02-15T16:51:52.394Z,20.22
2019-02-15T17:00:40.136Z,20.22
2019-02-15T17:03:13.364Z,19.94
2019-02-15T17:05:48.143Z,19.55
2019-02-15T17:12:50.388Z,19.23
2019-02-15T17:15:54.838Z,19.05
2019-02-15T17:18:29.254Z,19.05
2019-02-15T17:21:08.454Z,19.10
2019-02-15T17:23:44.382Z,19.02
2019-02-15T17:26:17.701Z,19.17
2019-02-15T17:28:51.979Z,18.49
2019-02-15T17:31:25.665Z,18.71
2019-02-15T17:34:00.153Z,18.79
2019-02-15T17:36:31.698Z,18.41
2019-02-15T17:39:02.834Z,18.63
2019-02-15T17:41:36.253Z,18.16
2019-02-15T17:44:14.411Z,18.20
2019-02-15T17:46:55.099Z,18.31
2019-02-15T17:49:36.967Z,17.97
2019-02-15T17:52:10.398Z,18.29
2019-02-15T17:54:44.813Z,17.82
2019-02-15T17:57:17.217Z,17.54
2019-02-15T17:59:50.336Z,17.60
2019-02-15T18:02:22.072Z,18.03
2019-02-15T18:11:49.988Z,17.81
2019-02-15T18:14:25.006Z,17.81
2019-02-15T18:17:21.834Z,17.86
2019-02-15T18:19:56.210Z,17.99
2019-02-15T18:22:29.265Z,17.72
2019-02-15T18:25:03.354Z,18.01
2019-02-15T18:27:36.497Z,17.87
2019-02-15T18:30:11.174Z,18.07
2019-02-15T18:32:44.450Z,18.29
2019-02-15T18:35:17.944Z,17.81
2019-02-15T18:37:58.618Z,18.10
2019-02-15T18:40:29.946Z,18.08
2019-02-15T18:43:03.513Z,17.68
2019-02-15T18:45:35.147Z,17.83
2019-02-15T18:48:08.741Z,17.88
2019-02-15T18:50:43.743Z,17.97
2019-02-15T18:54:29.012Z,17.64
2019-02-15T18:57:04.303Z,17.97
2019-02-15T18:59:36.932Z,18.16
2019-02-15T19:02:08.297Z,18.05
2019-02-15T19:04:44.869Z,17.32
2019-02-15T19:07:23.916Z,17.31
2019-02-15T19:10:35.913Z,17.45
2019-02-15T19:17:10.929Z,17.03
2019-02-15T19:20:07.625Z,17.21
2019-02-15T19:22:40.764Z,16.74
2019-02-15T19:25:30.297Z,17.20
2019-02-15T19:28:04.895Z,16.72
2019-02-15T19:30:37.188Z,16.59
2019-02-15T19:33:09.928Z,16.41
2019-02-15T19:35:59.474Z,16.77
2019-02-15T19:38:34.507Z,16.64
2019-02-15T19:41:05.548Z,16.80
2019-02-15T19:43:36.908Z,17.09
2019-02-15T19:46:09.348Z,17.29
2019-02-15T19:48:41.583Z,17.36
2019-02-15T19:51:12.764Z,17.33
2019-02-15T19:53:49.200Z,17.05
2019-02-15T19:56:21.782Z,17.17
2019-02-15T19:58:52.891Z,17.27
2019-02-15T20:01:30.291Z,16.97
2019-02-15T20:04:06.722Z,16.91
2019-02-15T20:06:41.024Z,17.11
2019-02-15T20:09:14.775Z,17.13
2019-02-15T20:11:47.133Z,16.88
2019-02-15T20:14:22.159Z,16.94
2019-02-15T20:16:58.771Z,16.89
2019-02-15T20:19:33.451Z,16.76
2019-02-15T20:22:06.487Z,16.87
2019-02-15T20:24:43.043Z,15.94
2019-02-15T20:27:21.641Z,16.03
2019-02-15T20:29:54.492Z,16.43
2019-02-15T20:32:26.997Z,16.13
2019-02-15T20:35:13.375Z,16.15
2019-02-15T20:37:47.262Z,16.13
2019-02-15T20:40:21.999Z,16.43
2019-02-15T20:42:53.210Z,16.54
2019-02-15T20:45:27.258Z,16.40
2019-02-15T20:48:01.758Z,16.19
2019-02-15T20:50:35.397Z,16.35
2019-02-15T20:53:17.861Z,16.58
2019-02-15T20:56:09.828Z,16.38
2019-02-15T20:58:44.923Z,16.55
2019-02-15T21:01:22.278Z,16.36
2019-02-15T21:03:59.223Z,16.14
2019-02-15T21:06:49.386Z,16.24
2019-02-15T21:09:35.263Z,15.94
2019-02-15T21:12:10.796Z,15.99
2019-02-15T21:14:45.653Z,15.95
2019-02-15T21:17:17.900Z,15.54
2019-02-15T21:19:53.565Z,15.40
2019-02-15T21:22:34.190Z,15.88
2019-02-15T21:25:08.249Z,15.57
2019-02-15T21:27:41.264Z,15.50
2019-02-15T21:30:16.270Z,15.94
2019-02-15T21:32:48.618Z,16.04
2019-02-15T21:35:21.341Z,16.17
2019-02-15T21:37:51.621Z,16.37
2019-02-15T21:40:23.105Z,16.12
2019-02-15T21:42:56.971Z,15.73
2019-02-15T21:45:27.442Z,15.68
2019-02-15T21:48:00.704Z,15.64
2019-02-15T21:50:31.741Z,16.10
2019-02-15T21:53:03.965Z,16.00
2019-02-15T21:55:36.653Z,16.27
2019-02-15T21:58:08.745Z,16.43
2019-02-15T22:00:39.446Z,16.41
2019-02-15T22:03:10.492Z,16.43
2019-02-15T22:05:43.231Z,16.33
2019-02-15T22:08:16.411Z,16.45
2019-02-15T22:10:48.025Z,16.39
2019-02-15T22:14:20.069Z,16.26
2019-02-15T22:17:02.845Z,16.07
2019-02-15T22:19:35.927Z,16.25
2019-02-15T22:22:07.840Z,16.21
2019-02-15T22:24:38.934Z,16.23
2019-02-15T22:27:11.398Z,16.27
2019-02-15T22:29:43.173Z,16.32
2019-02-15T22:32:14.380Z,16.19
2019-02-15T22:34:45.790Z,16.15
2019-02-15T22:37:16.616Z,16.21
2019-02-15T22:39:47.986Z,16.41
2019-02-15T22:42:21.770Z,16.27
2019-02-15T22:44:53.469Z,15.88
2019-02-15T22:47:24.836Z,16.12
2019-02-15T22:49:58.053Z,15.82
2019-02-15T22:52:31.769Z,16.03
2019-02-15T22:55:06.655Z,16.14
2019-02-15T22:57:36.936Z,15.73
2019-02-15T23:00:13.272Z,15.72
2019-02-15T23:02:46.218Z,15.66
2019-02-15T23:05:22.169Z,15.35
2019-02-15T23:07:54.076Z,15.46
2019-02-15T23:10:24.375Z,15.66
2019-02-15T23:13:00.293Z,15.41
2019-02-15T23:15:34.783Z,15.73
2019-02-15T23:18:06.364Z,15.60
2019-02-15T23:20:45.486Z,15.50
2019-02-15T23:23:21.180Z,15.40
2019-02-15T23:25:54.475Z,15.55
2019-02-15T23:28:30.381Z,15.49
2019-02-15T23:31:09.032Z,15.37
2019-02-15T23:33:41.685Z,14.75
2019-02-15T23:36:30.900Z,15.03
2019-02-15T23:39:04.909Z,14.79
2019-02-15T23:41:38.157Z,15.08
2019-02-15T23:44:08.322Z,15.17
2019-02-15T23:46:38.511Z,15.19
2019-02-15T23:49:09.216Z,14.94
2019-02-15T23:51:58.063Z,14.59
2019-02-15T23:54:30.399Z,14.77
2019-02-15T23:57:05.124Z,14.40
2019-02-15T23:59:35.319Z,14.46
